createdAt,value
2023-09-04T00:01:20.477Z,4.13
2023-09-04T00:03:47.964Z,3.17
2023-09-04T00:06:15.411Z,6.55
2023-09-04T00:08:44.698Z,3.80
2023-09-04T00:11:11.949Z,5.75
2023-09-04T00:13:39.226Z,3.28
2023-09-04T00:16:06.858Z,4.50
2023-09-04T00:18:35.547Z,3.80
2023-09-04T00:21:05.359Z,3.35
2023-09-04T00:23:33.103Z,3.53
2023-09-04T00:26:00.343Z,3.13
2023-09-04T00:28:28.142Z,4.60
2023-09-04T00:30:58.597Z,6.82
2023-09-04T00:33:26.868Z,4.28
2023-09-04T00:35:55.716Z,6.32
2023-09-04T00:38:23.295Z,4.97
2023-09-04T00:40:53.270Z,5.88
2023-09-04T00:43:22.881Z,4.75
2023-09-04T00:45:50.339Z,4.38
2023-09-04T00:48:18.005Z,3.55
2023-09-04T00:50:48.140Z,7.55
2023-09-04T00:53:15.730Z,5.70
2023-09-04T00:55:44.631Z,5.72
2023-09-04T00:58:12.082Z,4.90
2023-09-04T01:00:39.753Z,6.93
2023-09-04T01:03:08.184Z,4.22
2023-09-04T01:05:35.788Z,9.57
2023-09-04T01:08:04.551Z,3.63
2023-09-04T01:10:59.816Z,7.20
2023-09-04T01:13:38.934Z,3.35
2023-09-04T01:16:08.048Z,5.45
2023-09-04T01:18:42.670Z,4.75
2023-09-04T01:21:12.377Z,6.00
2023-09-04T01:23:39.693Z,4.95
2023-09-04T01:26:42.416Z,3.10
2023-09-04T01:29:34.230Z,5.03
2023-09-04T01:32:08.576Z,5.57
2023-09-04T01:34:46.457Z,5.63
2023-09-04T01:37:14.772Z,5.78
2023-09-04T01:39:43.585Z,6.20
2023-09-04T01:42:18.325Z,5.57
2023-09-04T01:44:45.739Z,7.53
2023-09-04T01:47:13.049Z,4.70
2023-09-04T01:49:40.914Z,5.28
2023-09-04T01:52:08.727Z,6.63
2023-09-04T01:54:36.140Z,5.80
2023-09-04T01:57:03.615Z,7.20
2023-09-04T01:59:31.113Z,4.38
2023-09-04T02:01:58.479Z,3.45
2023-09-04T02:04:27.213Z,5.03
2023-09-04T02:06:54.698Z,4.68
2023-09-04T02:09:25.258Z,3.30
2023-09-04T02:11:53.209Z,5.07
2023-09-04T02:14:21.047Z,4.72
2023-09-04T02:16:48.354Z,5.90
2023-09-04T02:19:20.556Z,5.20
2023-09-04T02:22:07.740Z,4.00
2023-09-04T02:24:35.393Z,5.28
2023-09-04T02:27:05.883Z,6.13
2023-09-04T02:29:33.415Z,4.75
2023-09-04T02:32:00.796Z,4.15
2023-09-04T02:34:28.338Z,3.65
2023-09-04T02:36:56.042Z,5.00
2023-09-04T02:39:25.524Z,4.03
2023-09-04T02:41:53.014Z,5.13
2023-09-04T02:44:20.538Z,7.72
2023-09-04T02:46:48.149Z,4.20
2023-09-04T02:49:16.095Z,6.18
2023-09-04T02:51:43.410Z,5.40
2023-09-04T02:54:12.289Z,4.50
2023-09-04T02:56:39.504Z,6.30
2023-09-04T02:59:06.669Z,4.63
2023-09-04T03:01:35.616Z,5.32
2023-09-04T03:04:03.020Z,3.80
2023-09-04T03:06:30.501Z,3.92
2023-09-04T03:08:57.930Z,5.93
2023-09-04T03:11:27.387Z,4.38
2023-09-04T03:13:57.481Z,4.15
2023-09-04T03:16:24.969Z,3.70
2023-09-04T03:18:52.320Z,6.80
2023-09-04T03:21:19.683Z,3.70
2023-09-04T03:23:51.264Z,12.68
2023-09-04T03:26:19.771Z,4.65
2023-09-04T03:28:47.372Z,4.03
2023-09-04T03:31:15.637Z,4.63
2023-09-04T03:33:43.523Z,4.45
2023-09-04T03:36:12.450Z,7.55
2023-09-04T03:38:41.440Z,5.70
2023-09-04T03:41:08.912Z,4.60
2023-09-04T03:43:36.265Z,6.90
2023-09-04T03:46:03.940Z,4.63
2023-09-04T03:48:31.396Z,7.45
2023-09-04T03:51:03.508Z,4.80
2023-09-04T03:53:31.093Z,4.47
2023-09-04T03:56:06.182Z,4.57
2023-09-04T03:58:33.780Z,6.30
2023-09-04T04:01:01.483Z,5.57
2023-09-04T04:03:29.326Z,5.03
2023-09-04T04:05:57.108Z,6.45
2023-09-04T04:08:24.664Z,8.32
2023-09-04T04:10:52.647Z,6.28
2023-09-04T04:13:20.030Z,9.35
2023-09-04T04:15:47.564Z,6.43
2023-09-04T04:18:17.694Z,7.53
2023-09-04T04:20:45.827Z,8.23
2023-09-04T04:23:13.095Z,8.15
2023-09-04T04:25:42.269Z,6.88
2023-09-04T04:28:11.139Z,6.32
2023-09-04T04:30:41.112Z,8.35
2023-09-04T04:33:09.257Z,8.82
2023-09-04T04:35:36.691Z,5.25
2023-09-04T04:38:04.416Z,8.00
2023-09-04T04:40:35.249Z,4.65
2023-09-04T04:43:05.792Z,4.60
2023-09-04T04:45:34.843Z,7.65
2023-09-04T04:48:04.778Z,7.35
2023-09-04T04:50:33.020Z,7.60
2023-09-04T04:53:03.317Z,12.68
2023-09-04T04:55:32.113Z,6.68
2023-09-04T04:57:59.504Z,6.57
2023-09-04T05:00:26.949Z,22.85
2023-09-04T05:02:54.592Z,16.08
2023-09-04T05:05:27.896Z,21.92
2023-09-04T05:07:55.407Z,7.85
2023-09-04T05:10:22.941Z,6.63
2023-09-04T05:12:50.040Z,9.88
2023-09-04T05:15:17.768Z,6.63
2023-09-04T05:17:45.218Z,8.35
2023-09-04T05:20:20.479Z,12.48
2023-09-04T05:22:47.804Z,9.55
2023-09-04T05:25:15.360Z,10.20
2023-09-04T05:27:47.385Z,13.05
2023-09-04T05:30:16.195Z,9.40
2023-09-04T05:32:46.413Z,6.40
2023-09-04T05:35:18.600Z,12.30
2023-09-04T05:38:10.519Z,7.72
2023-09-04T05:40:41.514Z,7.35
2023-09-04T05:43:12.848Z,21.63
2023-09-04T05:45:41.032Z,18.15
2023-09-04T05:48:18.168Z,6.22
2023-09-04T05:50:49.900Z,10.63
2023-09-04T05:53:22.089Z,7.82
2023-09-04T05:56:06.174Z,6.07
2023-09-04T05:58:48.737Z,5.93
2023-09-04T06:03:38.073Z,5.40
2023-09-04T06:07:02.660Z,5.63
2023-09-04T06:09:43.665Z,5.85
2023-09-04T06:15:50.347Z,4.80
2023-09-04T06:19:00.351Z,3.47
2023-09-04T06:21:33.500Z,5.90
2023-09-04T06:24:24.944Z,9.00
2023-09-04T06:27:41.433Z,6.03
2023-09-04T06:30:31.885Z,8.90
2023-09-04T06:33:05.702Z,3.97
2023-09-04T06:38:49.037Z,3.35
2023-09-04T06:44:24.721Z,9.55
2023-09-04T06:46:53.859Z,6.75
2023-09-04T06:49:23.849Z,6.50
2023-09-04T06:51:54.821Z,5.18
2023-09-04T06:54:22.848Z,5.90
2023-09-04T06:56:56.245Z,6.35
2023-09-04T06:59:34.423Z,5.32
2023-09-04T07:02:12.804Z,6.43
2023-09-04T07:04:41.528Z,4.78
2023-09-04T07:07:55.002Z,4.75
2023-09-04T07:10:45.969Z,2.75
2023-09-04T07:13:34.678Z,3.90
2023-09-04T07:16:35.432Z,3.05
2023-09-04T07:19:10.272Z,3.50
2023-09-04T07:21:39.308Z,2.85
2023-09-04T07:24:07.187Z,2.65
2023-09-04T07:26:41.260Z,2.53
2023-09-04T07:29:13.942Z,3.58
2023-09-04T07:31:46.622Z,4.18
2023-09-04T07:34:28.522Z,2.92
2023-09-04T07:36:56.083Z,3.92
2023-09-04T07:39:25.293Z,3.50
2023-09-04T07:41:55.960Z,5.25
2023-09-04T07:44:25.929Z,3.05
2023-09-04T07:47:00.870Z,3.33
2023-09-04T07:49:41.709Z,1.85
2023-09-04T07:52:11.141Z,2.70
2023-09-04T07:54:44.696Z,2.40
2023-09-04T07:57:36.778Z,1.80
2023-09-04T08:00:09.984Z,5.20
2023-09-04T08:03:00.422Z,3.40
2023-09-04T08:05:49.675Z,1.77
2023-09-04T08:08:27.312Z,2.95
2023-09-04T08:11:01.603Z,1.95
2023-09-04T08:13:35.909Z,2.80
2023-09-04T08:16:13.525Z,1.85
2023-09-04T08:19:09.446Z,3.08
2023-09-04T08:21:44.294Z,3.00
2023-09-04T08:24:26.219Z,4.07
2023-09-04T08:27:05.051Z,2.33
2023-09-04T08:29:33.443Z,3.67
2023-09-04T08:32:01.370Z,2.65
2023-09-04T08:34:31.249Z,2.60
2023-09-04T08:37:01.997Z,2.22
2023-09-04T08:39:30.003Z,1.90
2023-09-04T08:42:04.180Z,2.70
2023-09-04T08:44:40.969Z,3.58
2023-09-04T08:47:13.589Z,3.72
2023-09-04T08:49:51.717Z,1.95
2023-09-04T08:52:28.852Z,1.52
2023-09-04T08:55:04.711Z,4.38
2023-09-04T08:57:38.337Z,3.85
2023-09-04T09:00:07.675Z,1.65
2023-09-04T09:03:03.237Z,2.42
2023-09-04T09:06:02.618Z,2.17
2023-09-04T09:08:36.687Z,2.35
2023-09-04T09:11:05.105Z,2.05
2023-09-04T09:13:43.857Z,2.92
2023-09-04T09:16:22.133Z,3.45
2023-09-04T09:18:51.032Z,3.15
2023-09-04T09:21:36.806Z,3.72
2023-09-04T09:24:15.544Z,2.80
2023-09-04T09:26:57.253Z,4.22
2023-09-04T09:29:39.645Z,2.78
2023-09-04T09:32:10.917Z,3.17
2023-09-04T09:34:42.273Z,2.83
2023-09-04T09:37:12.440Z,2.83
2023-09-04T09:40:11.358Z,3.17
2023-09-04T09:42:36.558Z,3.30
2023-09-04T09:45:16.926Z,4.65
2023-09-04T09:47:55.064Z,3.17
2023-09-04T09:50:35.143Z,8.25
2023-09-04T09:53:14.441Z,2.85
2023-09-04T09:56:06.551Z,2.28
2023-09-04T09:58:43.711Z,3.28
2023-09-04T10:01:15.885Z,3.65
2023-09-04T10:03:49.241Z,2.42
2023-09-04T10:06:33.774Z,4.05
2023-09-04T10:09:05.123Z,3.97
2023-09-04T10:11:37.983Z,3.38
2023-09-04T10:14:25.750Z,2.45
2023-09-04T10:17:07.738Z,3.97
2023-09-04T10:19:44.224Z,3.25
2023-09-04T10:22:26.088Z,6.13
2023-09-04T10:25:27.561Z,3.67
2023-09-04T10:28:41.506Z,5.43
2023-09-04T10:31:48.485Z,4.70
2023-09-04T10:34:18.838Z,9.90
2023-09-04T10:36:47.684Z,7.90
2023-09-04T10:39:23.448Z,6.13
2023-09-04T10:41:56.487Z,6.13
2023-09-04T10:44:50.386Z,3.40
2023-09-04T10:47:24.252Z,2.38
2023-09-04T10:49:53.565Z,3.42
2023-09-04T10:52:26.857Z,5.63
2023-09-04T10:58:04.584Z,4.93
2023-09-04T11:03:46.539Z,3.42
2023-09-04T11:11:36.520Z,3.53
2023-09-04T11:14:24.665Z,3.28
2023-09-04T11:17:26.801Z,5.45
2023-09-04T11:20:22.496Z,8.68
2023-09-04T11:23:00.795Z,8.80
2023-09-04T11:25:59.512Z,24.60
2023-09-04T11:28:41.454Z,7.25
2023-09-04T11:31:29.021Z,5.80
2023-09-04T11:33:58.364Z,4.97
2023-09-04T11:36:52.444Z,3.75
2023-09-04T11:39:32.485Z,4.80
2023-09-04T11:44:34.367Z,5.60
2023-09-04T11:47:17.489Z,4.05
2023-09-04T11:49:48.722Z,4.25
2023-09-04T11:52:30.383Z,4.90
2023-09-04T11:55:00.492Z,3.13
2023-09-04T11:57:28.041Z,3.70
2023-09-04T11:59:57.658Z,5.55
2023-09-04T12:02:26.223Z,5.25
2023-09-04T12:05:03.135Z,4.43
2023-09-04T12:07:34.258Z,5.90
2023-09-04T12:10:27.662Z,5.20
2023-09-04T12:13:00.081Z,6.28
2023-09-04T12:15:54.115Z,4.72
2023-09-04T12:18:27.670Z,6.32
2023-09-04T12:20:58.300Z,4.22
2023-09-04T12:23:48.983Z,6.30
2023-09-04T12:26:27.585Z,4.30
2023-09-04T12:28:55.689Z,4.85
2023-09-04T12:31:25.327Z,3.53
2023-09-04T12:34:00.518Z,3.85
2023-09-04T12:36:38.133Z,3.88
2023-09-04T12:39:09.296Z,3.33
2023-09-04T12:42:06.926Z,4.40
2023-09-04T12:44:50.884Z,4.40
2023-09-04T12:47:32.477Z,5.38
2023-09-04T12:50:32.084Z,6.45
2023-09-04T12:53:07.155Z,5.00
2023-09-04T12:55:40.528Z,4.50
2023-09-04T12:58:24.868Z,3.35
2023-09-04T13:01:18.123Z,3.67
2023-09-04T13:03:54.380Z,3.13
2023-09-04T13:06:22.259Z,4.57
2023-09-04T13:08:51.072Z,6.18
2023-09-04T13:11:21.676Z,2.92
2023-09-04T13:13:57.458Z,4.28
2023-09-04T13:16:48.629Z,3.00
2023-09-04T13:19:21.297Z,6.15
2023-09-04T13:21:55.723Z,4.10
2023-09-04T13:24:25.093Z,3.40
2023-09-04T13:27:03.209Z,3.88
2023-09-04T13:29:39.017Z,3.00
2023-09-04T13:35:14.472Z,5.35
2023-09-04T13:37:46.608Z,4.28
2023-09-04T13:40:19.133Z,4.15
2023-09-04T13:42:47.850Z,5.13
2023-09-04T13:45:16.255Z,5.72
2023-09-04T13:47:46.475Z,6.57
2023-09-04T13:50:21.868Z,5.38
2023-09-04T13:52:51.914Z,5.18
2023-09-04T13:55:24.886Z,5.85
2023-09-04T13:58:00.950Z,5.13
2023-09-04T14:00:58.261Z,2.65
2023-09-04T14:03:27.248Z,4.90
2023-09-04T14:06:02.432Z,4.40
2023-09-04T14:08:33.466Z,4.25
2023-09-04T14:11:18.196Z,3.45
2023-09-04T14:14:00.064Z,3.25
2023-09-04T14:16:50.330Z,4.75
2023-09-04T14:19:19.975Z,3.40
2023-09-04T14:21:57.342Z,3.85
2023-09-04T14:24:39.939Z,3.38
2023-09-04T14:27:17.084Z,6.65
2023-09-04T14:29:46.300Z,9.18
2023-09-04T14:32:19.198Z,2.85
2023-09-04T14:34:48.225Z,6.22
2023-09-04T14:40:08.506Z,4.93
2023-09-04T14:42:57.168Z,5.82
2023-09-04T14:45:33.500Z,7.20
2023-09-04T14:48:08.786Z,4.63
2023-09-04T14:50:43.569Z,5.82
2023-09-04T14:53:40.752Z,4.93
2023-09-04T14:56:13.567Z,4.72
2023-09-04T14:58:44.286Z,3.50
2023-09-04T15:01:21.095Z,7.35
2023-09-04T15:06:26.714Z,3.20
2023-09-04T15:08:54.998Z,3.72
2023-09-04T15:11:26.537Z,5.53
2023-09-04T15:13:58.848Z,5.32
2023-09-04T15:16:29.730Z,6.40
2023-09-04T15:18:58.728Z,4.57
2023-09-04T15:21:27.400Z,5.57
2023-09-04T15:23:56.872Z,4.43
2023-09-04T15:26:25.216Z,6.65
2023-09-04T15:28:54.440Z,6.30
2023-09-04T15:31:27.291Z,6.78
2023-09-04T15:34:05.511Z,4.95
2023-09-04T15:36:55.591Z,10.05
2023-09-04T15:39:24.466Z,4.82
2023-09-04T15:42:02.450Z,7.40
2023-09-04T15:44:57.027Z,4.18
2023-09-04T15:50:12.300Z,7.38
2023-09-04T15:52:48.749Z,7.60
2023-09-04T15:55:19.155Z,5.70
2023-09-04T15:57:52.374Z,6.47
2023-09-04T16:00:20.230Z,6.28
2023-09-04T16:02:48.701Z,6.63
2023-09-04T16:05:16.392Z,6.78
2023-09-04T16:07:43.873Z,7.68
2023-09-04T16:10:14.516Z,5.80
2023-09-04T16:12:41.862Z,3.40
2023-09-04T16:15:09.995Z,5.15
2023-09-04T16:17:37.661Z,5.18
2023-09-04T16:20:05.632Z,3.45
2023-09-04T16:22:33.185Z,6.22
2023-09-04T16:25:02.512Z,4.47
2023-09-04T16:27:31.486Z,4.50
2023-09-04T16:30:03.826Z,3.70
2023-09-04T16:32:32.878Z,6.50
2023-09-04T16:35:02.865Z,4.43
2023-09-04T16:37:31.920Z,4.28
2023-09-04T16:40:02.819Z,5.43
2023-09-04T16:42:33.119Z,6.32
2023-09-04T16:45:03.161Z,4.00
2023-09-04T16:47:35.314Z,5.60
2023-09-04T16:50:03.228Z,7.43
2023-09-04T16:52:31.323Z,8.32
2023-09-04T16:55:07.800Z,7.65
2023-09-04T16:57:41.883Z,6.20
2023-09-04T17:00:12.974Z,8.98
2023-09-04T17:03:05.347Z,7.45
2023-09-04T17:05:37.864Z,8.07
2023-09-04T17:08:08.964Z,7.63
2023-09-04T17:10:37.122Z,4.68
2023-09-04T17:13:05.150Z,6.60
2023-09-04T17:15:32.681Z,7.90
2023-09-04T17:18:01.529Z,6.20
2023-09-04T17:20:34.119Z,5.45
2023-09-04T17:23:02.052Z,7.85
2023-09-04T17:25:29.672Z,8.35
2023-09-04T17:27:57.283Z,9.52
2023-09-04T17:30:27.782Z,8.85
2023-09-04T17:32:56.621Z,7.22
2023-09-04T17:35:25.177Z,5.63
2023-09-04T17:37:58.146Z,9.35
2023-09-04T17:40:26.824Z,8.38
2023-09-04T17:42:54.540Z,7.85
2023-09-04T17:45:22.364Z,10.05
2023-09-04T17:47:53.167Z,10.55
2023-09-04T17:50:20.531Z,10.13
2023-09-04T17:52:51.796Z,13.18
2023-09-04T17:55:19.792Z,7.40
2023-09-04T17:57:47.670Z,9.52
2023-09-04T18:00:15.799Z,6.20
2023-09-04T18:02:43.884Z,10.52
2023-09-04T18:05:12.028Z,7.18
2023-09-04T18:07:42.962Z,9.77
2023-09-04T18:10:12.602Z,7.75
2023-09-04T18:12:40.112Z,12.65
2023-09-04T18:15:08.237Z,7.60
2023-09-04T18:17:35.784Z,4.10
2023-09-04T18:20:04.407Z,4.70
2023-09-04T18:22:32.686Z,10.50
2023-09-04T18:25:01.423Z,9.43
2023-09-04T18:27:31.961Z,6.03
2023-09-04T18:30:07.820Z,7.25
2023-09-04T18:32:42.103Z,6.13
2023-09-04T18:35:10.045Z,4.88
2023-09-04T18:37:38.017Z,7.20
2023-09-04T18:40:06.386Z,7.80
2023-09-04T18:42:36.615Z,8.75
2023-09-04T18:45:04.763Z,7.53
2023-09-04T18:47:32.726Z,8.60
2023-09-04T18:50:00.258Z,14.05
2023-09-04T18:52:27.692Z,9.40
2023-09-04T18:54:58.000Z,10.10
2023-09-04T18:57:25.538Z,10.30
2023-09-04T18:59:53.279Z,9.27
2023-09-04T19:02:22.213Z,7.45
2023-09-04T19:04:50.458Z,8.57
2023-09-04T19:07:21.570Z,9.63
2023-09-04T19:09:53.385Z,13.23
2023-09-04T19:12:21.413Z,7.32
2023-09-04T19:14:49.207Z,10.10
2023-09-04T19:17:16.832Z,9.43
2023-09-04T19:19:47.083Z,9.02
2023-09-04T19:22:27.826Z,11.68
2023-09-04T19:27:26.986Z,6.95
2023-09-04T19:30:04.542Z,5.97
2023-09-04T19:32:32.472Z,7.57
2023-09-04T19:35:05.294Z,7.22
2023-09-04T19:37:32.781Z,6.70
2023-09-04T19:40:05.416Z,6.13
2023-09-04T19:42:33.933Z,8.40
2023-09-04T19:45:01.606Z,7.03
2023-09-04T19:47:32.149Z,5.45
2023-09-04T19:50:05.053Z,6.80
2023-09-04T19:52:33.352Z,7.32
2023-09-04T19:55:01.834Z,6.85
2023-09-04T19:57:35.118Z,6.60
2023-09-04T20:00:07.059Z,4.10
2023-09-04T20:02:35.070Z,5.88
2023-09-04T20:05:02.707Z,4.65
2023-09-04T20:07:31.828Z,4.50
2023-09-04T20:09:59.488Z,9.00
2023-09-04T20:12:27.113Z,4.60
2023-09-04T20:14:57.978Z,6.78
2023-09-04T20:17:25.571Z,5.95
2023-09-04T20:19:57.526Z,7.72
2023-09-04T20:22:27.421Z,5.45
2023-09-04T20:24:55.601Z,5.30
2023-09-04T20:27:23.121Z,8.52
2023-09-04T20:29:50.899Z,7.93
2023-09-04T20:32:29.476Z,5.50
2023-09-04T20:35:09.217Z,4.63
2023-09-04T20:38:05.635Z,8.02
2023-09-04T20:41:19.660Z,6.40
2023-09-04T20:43:54.376Z,4.05
2023-09-04T20:46:47.651Z,5.85
2023-09-04T20:49:48.858Z,11.55
2023-09-04T20:52:19.634Z,4.90
2023-09-04T20:55:20.067Z,4.22
2023-09-04T20:57:59.360Z,6.95
2023-09-04T21:00:27.063Z,3.55
2023-09-04T21:03:02.718Z,4.57
2023-09-04T21:05:34.387Z,4.22
2023-09-04T21:08:07.205Z,8.10
2023-09-04T21:10:38.985Z,5.50
2023-09-04T21:13:32.034Z,5.10
2023-09-04T21:16:24.365Z,6.30
2023-09-04T21:19:13.612Z,6.63
2023-09-04T21:22:01.208Z,7.88
2023-09-04T21:24:48.633Z,6.20
2023-09-04T21:27:34.212Z,4.90
2023-09-04T21:30:19.776Z,7.78
2023-09-04T21:33:06.996Z,8.60
2023-09-04T21:38:47.593Z,5.05
2023-09-04T21:41:35.341Z,5.60
2023-09-04T21:44:27.353Z,11.95
2023-09-04T21:47:19.369Z,6.35
2023-09-04T21:50:05.145Z,7.95
2023-09-04T21:52:50.859Z,5.57
2023-09-04T21:55:47.506Z,10.95
2023-09-04T21:58:36.275Z,5.53
2023-09-04T22:01:23.366Z,9.15
2023-09-04T22:04:11.685Z,9.05
2023-09-04T22:07:00.905Z,13.93
2023-09-04T22:09:49.559Z,16.25
2023-09-04T22:12:35.947Z,19.40
2023-09-04T22:15:24.866Z,21.10
2023-09-04T22:18:14.377Z,20.17
2023-09-04T22:21:00.605Z,24.48
2023-09-04T22:23:47.023Z,18.67
2023-09-04T22:26:43.431Z,16.33
2023-09-04T22:29:32.045Z,19.55
2023-09-04T22:32:17.863Z,13.88
2023-09-04T22:35:04.081Z,9.35
2023-09-04T22:37:53.278Z,14.02
2023-09-04T22:40:39.068Z,13.18
2023-09-04T22:43:25.619Z,7.43
2023-09-04T22:46:12.012Z,6.82
2023-09-04T22:48:58.678Z,8.52
2023-09-04T22:51:44.656Z,7.43
2023-09-04T22:54:40.565Z,9.68
2023-09-04T22:57:26.652Z,6.30
2023-09-04T23:00:12.730Z,5.80
2023-09-04T23:02:58.679Z,5.13
2023-09-04T23:05:44.529Z,10.65
2023-09-04T23:08:33.685Z,7.18
2023-09-04T23:11:19.495Z,7.47
2023-09-04T23:14:06.219Z,7.47
2023-09-04T23:16:55.545Z,6.55
2023-09-04T23:19:41.378Z,8.57
2023-09-04T23:22:13.833Z,7.00
2023-09-04T23:24:51.463Z,4.90
2023-09-04T23:27:27.844Z,5.72
2023-09-04T23:29:58.052Z,7.80
2023-09-04T23:32:42.542Z,4.15
2023-09-04T23:35:29.997Z,7.50
2023-09-04T23:38:26.978Z,4.82
2023-09-04T23:41:29.570Z,5.90
2023-09-04T23:44:18.732Z,5.90
2023-09-04T23:46:52.540Z,5.97
2023-09-04T23:49:32.195Z,6.82
2023-09-04T23:51:59.848Z,6.20
2023-09-04T23:54:34.662Z,5.20
2023-09-04T23:57:06.893Z,5.88
2023-09-04T23:59:34.780Z,3.47
